Time,TemperatureF,DewpointF,PressureIn,WindDirection,WindDirectionDegrees,WindSpeedMPH,WindSpeedGustMPH,Humidity,HourlyPrecipIn,Conditions,Clouds,dailyrainin,SoftwareType,DateUTC
2013-05-15 00:00:00,53.7,43.0,30.03,SW,231,12.0,-999.0,67,-99.99,,,0.00,weatherlink.com 1.10,2013-05-15 04:00:00,
2013-05-15 00:15:00,53.6,44.0,30.02,SW,234,23.0,-999.0,69,-99.99,,,0.00,weatherlink.com 1.10,2013-05-15 04:15:00,
2013-05-15 00:30:00,53.5,45.0,30.02,SW,235,21.0,-999.0,72,-99.99,,,0.00,weatherlink.com 1.10,2013-05-15 04:30:00,
2013-05-15 00:45:00,53.2,45.0,30.01,WSW,251,16.0,-999.0,73,-99.99,,,0.00,weatherlink.com 1.10,2013-05-15 04:45:00,
2013-05-15 01:00:00,53.3,45.0,30.01,West,271,23.0,-999.0,74,-99.99,,,0.00,weatherlink.com 1.10,2013-05-15 05:00:00,
2013-05-15 01:15:00,53.2,45.0,30.00,SW,231,13.0,-999.0,75,-99.99,,,0.00,weatherlink.com 1.10,2013-05-15 05:15:00,
2013-05-15 01:30:00,53.6,47.0,30.00,SSW,211,12.0,-999.0,77,-99.99,,,0.00,weatherlink.com 1.10,2013-05-15 05:30:00,
2013-05-15 01:45:00,54.1,47.0,29.98,SW,217,23.0,-999.0,77,-99.99,,,0.00,weatherlink.com 1.10,2013-05-15 05:45:00,
2013-05-15 02:00:00,55.1,49.0,29.99,West,271,23.0,-999.0,80,-99.99,,,0.00,weatherlink.com 1.10,2013-05-15 06:00:00,
2013-05-15 02:15:00,54.6,49.0,29.98,West,261,23.0,-999.0,81,-99.99,,,0.00,weatherlink.com 1.10,2013-05-15 06:15:00,
2013-05-15 02:30:00,55.5,50.0,29.98,WNW,287,18.0,-999.0,81,-99.99,,,0.00,weatherlink.com 1.10,2013-05-15 06:30:00,
2013-05-15 02:45:00,55.6,50.0,29.97,SW,222,22.0,-999.0,82,-99.99,,,0.00,weatherlink.com 1.10,2013-05-15 06:45:00,
2013-05-15 03:00:00,55.7,51.0,29.97,SW,234,19.0,-999.0,83,-99.99,,,0.00,weatherlink.com 1.10,2013-05-15 07:00:00,
2013-05-15 03:16:00,55.3,51.0,29.96,WSW,239,15.0,-999.0,84,-99.99,,,0.00,weatherlink.com 1.10,2013-05-15 07:16:00,
2013-05-15 03:31:00,55.4,51.0,29.96,WNW,288,11.0,-999.0,84,-99.99,,,0.00,weatherlink.com 1.10,2013-05-15 07:31:00,
2013-05-15 03:46:00,55.0,51.0,29.95,SW,222,18.0,-999.0,85,-99.99,,,0.00,weatherlink.com 1.10,2013-05-15 07:46:00,
2013-05-15 04:01:00,54.8,51.0,29.97,WSW,256,9.0,-999.0,86,-99.99,,,0.00,weatherlink.com 1.10,2013-05-15 08:01:00,
2013-05-15 04:16:00,55.0,51.0,29.96,SW,232,11.0,-999.0,86,-99.99,,,0.00,weatherlink.com 1.10,2013-05-15 08:16:00,
2013-05-15 04:31:00,54.7,51.0,29.96,WSW,250,11.0,-999.0,87,-99.99,,,0.00,weatherlink.com 1.10,2013-05-15 08:31:00,
2013-05-15 04:46:00,54.5,51.0,29.96,WSW,248,9.0,-999.0,87,-99.99,,,0.00,weatherlink.com 1.10,2013-05-15 08:46:00,
2013-05-15 05:01:00,54.3,51.0,29.97,West,271,13.0,-999.0,88,-99.99,,,0.00,weatherlink.com 1.10,2013-05-15 09:01:00,
2013-05-15 05:16:00,54.0,51.0,29.97,SW,233,12.0,-999.0,89,-99.99,,,0.00,weatherlink.com 1.10,2013-05-15 09:16:00,
2013-05-15 05:31:00,53.7,51.0,29.96,WNW,292,14.0,-999.0,89,-99.99,,,0.00,weatherlink.com 1.10,2013-05-15 09:31:00,
2013-05-15 05:46:00,53.7,51.0,29.97,WSW,246,16.0,-999.0,90,-99.99,,,0.00,weatherlink.com 1.10,2013-05-15 09:46:00,
2013-05-15 06:01:00,53.8,51.0,29.97,West,274,10.0,-999.0,90,-99.99,,,0.00,weatherlink.com 1.10,2013-05-15 10:01:00,
2013-05-15 06:16:00,53.7,51.0,29.98,WSW,250,8.0,-999.0,90,-99.99,,,0.00,weatherlink.com 1.10,2013-05-15 10:16:00,
2013-05-15 06:31:00,53.7,51.0,29.98,WSW,242,15.0,-999.0,90,-99.99,,,0.00,weatherlink.com 1.10,2013-05-15 10:31:00,
2013-05-15 06:46:00,53.9,51.0,29.98,SW,227,13.0,-999.0,90,-99.99,,,0.00,weatherlink.com 1.10,2013-05-15 10:46:00,
2013-05-15 07:16:00,54.4,52.0,29.98,SW,217,13.0,-999.0,90,-99.99,,,0.00,weatherlink.com 1.10,2013-05-15 11:16:00,
2013-05-15 07:31:00,54.6,52.0,29.98,WSW,246,13.0,-999.0,90,-99.99,,,0.00,weatherlink.com 1.10,2013-05-15 11:31:00,
2013-05-15 07:46:00,55.7,52.0,29.98,SW,219,12.0,-999.0,88,-99.99,,,0.00,weatherlink.com 1.10,2013-05-15 11:46:00,
2013-05-15 08:16:00,56.8,53.0,29.98,SW,228,23.0,-999.0,86,-99.99,,,0.00,weatherlink.com 1.10,2013-05-15 12:16:00,
2013-05-15 08:31:00,57.5,53.0,29.98,SW,231,19.0,-999.0,84,-99.99,,,0.00,weatherlink.com 1.10,2013-05-15 12:31:00,
2013-05-15 08:46:00,59.0,53.0,29.98,WSW,238,12.0,-999.0,81,-99.99,,,0.00,weatherlink.com 1.10,2013-05-15 12:46:00,
2013-05-15 09:16:00,60.1,53.0,29.97,WNW,284,15.0,-999.0,76,-99.99,,,0.00,weatherlink.com 1.10,2013-05-15 13:16:00,
2013-05-15 09:46:00,62.5,53.0,29.97,SW,233,18.0,-999.0,70,-99.99,,,0.00,weatherlink.com 1.10,2013-05-15 13:46:00,
2013-05-15 10:01:00,63.5,53.0,29.96,SW,226,19.0,-999.0,68,-99.99,,,0.00,weatherlink.com 1.10,2013-05-15 14:01:00,
2013-05-15 10:16:00,63.3,52.0,29.96,WSW,250,18.0,-999.0,67,-99.99,,,0.00,weatherlink.com 1.10,2013-05-15 14:16:00,
2013-05-15 10:31:00,64.0,52.0,29.95,SW,229,16.0,-999.0,65,-99.99,,,0.00,weatherlink.com 1.10,2013-05-15 14:31:00,
2013-05-15 10:46:00,65.4,52.0,29.96,SW,233,15.0,-999.0,63,-99.99,,,0.00,weatherlink.com 1.10,2013-05-15 14:46:00,
2013-05-15 11:01:00,66.3,52.0,29.96,WSW,251,20.0,-999.0,61,-99.99,,,0.00,weatherlink.com 1.10,2013-05-15 15:01:00,
2013-05-15 11:16:00,67.1,53.0,29.95,WSW,240,19.0,-999.0,60,-99.99,,,0.00,weatherlink.com 1.10,2013-05-15 15:16:00,
2013-05-15 11:31:00,68.1,52.0,29.95,West,269,22.0,-999.0,57,-99.99,,,0.00,weatherlink.com 1.10,2013-05-15 15:31:00,
2013-05-15 12:16:00,69.6,52.0,29.94,SW,221,15.0,-999.0,54,-99.99,,,0.00,weatherlink.com 1.10,2013-05-15 16:16:00,
2013-05-15 12:47:00,70.7,52.0,29.93,SW,219,10.0,-999.0,52,-99.99,,,0.00,weatherlink.com 1.10,2013-05-15 16:47:00,
2013-05-15 13:02:00,71.0,50.0,29.93,SW,228,19.0,-999.0,47,-99.99,,,0.00,weatherlink.com 1.10,2013-05-15 17:02:00,
2013-05-15 13:32:00,72.9,51.0,29.92,WSW,242,15.0,-999.0,47,-99.99,,,0.00,weatherlink.com 1.10,2013-05-15 17:32:00,
2013-05-15 13:47:00,73.1,52.0,29.91,SW,236,16.0,-999.0,47,-99.99,,,0.00,weatherlink.com 1.10,2013-05-15 17:47:00,
2013-05-15 14:02:00,73.3,51.0,29.91,WSW,237,18.0,-999.0,45,-99.99,,,0.00,weatherlink.com 1.10,2013-05-15 18:02:00,
2013-05-15 14:47:00,75.0,49.0,29.89,SW,236,15.0,-999.0,40,-99.99,,,0.00,weatherlink.com 1.10,2013-05-15 18:47:00,
2013-05-15 15:02:00,75.1,46.0,29.88,WSW,250,19.0,-999.0,35,-99.99,,,0.00,weatherlink.com 1.10,2013-05-15 19:02:00,
2013-05-15 15:47:00,74.7,48.0,29.86,SW,227,16.0,-999.0,39,-99.99,,,0.00,weatherlink.com 1.10,2013-05-15 19:47:00,
2013-05-15 16:02:00,74.2,47.0,29.85,SW,229,29.0,-999.0,38,-99.99,,,0.00,weatherlink.com 1.10,2013-05-15 20:02:00,
2013-05-15 16:17:00,74.9,47.0,29.85,WSW,247,19.0,-999.0,37,-99.99,,,0.00,weatherlink.com 1.10,2013-05-15 20:17:00,
2013-05-15 16:32:00,74.1,46.0,29.85,WSW,253,16.0,-999.0,37,-99.99,,,0.00,weatherlink.com 1.10,2013-05-15 20:32:00,
2013-05-15 16:47:00,74.2,47.0,29.84,WSW,241,20.0,-999.0,38,-99.99,,,0.00,weatherlink.com 1.10,2013-05-15 20:47:00,
2013-05-15 17:02:00,73.3,47.0,29.84,WSW,242,24.0,-999.0,40,-99.99,,,0.00,weatherlink.com 1.10,2013-05-15 21:02:00,
2013-05-15 17:17:00,73.8,47.0,29.83,SW,235,18.0,-999.0,39,-99.99,,,0.00,weatherlink.com 1.10,2013-05-15 21:17:00,
2013-05-15 17:32:00,72.5,46.0,29.83,WSW,240,16.0,-999.0,39,-99.99,,,0.00,weatherlink.com 1.10,2013-05-15 21:32:00,
2013-05-15 17:47:00,72.5,47.0,29.83,WSW,238,23.0,-999.0,41,-99.99,,,0.00,weatherlink.com 1.10,2013-05-15 21:47:00,
2013-05-15 18:02:00,71.9,47.0,29.83,West,261,12.0,-999.0,41,-99.99,,,0.00,weatherlink.com 1.10,2013-05-15 22:02:00,
2013-05-15 18:17:00,71.7,47.0,29.82,SW,236,21.0,-999.0,41,-99.99,,,0.00,weatherlink.com 1.10,2013-05-15 22:17:00,
2013-05-15 18:32:00,71.1,47.0,29.82,WSW,248,11.0,-999.0,43,-99.99,,,0.00,weatherlink.com 1.10,2013-05-15 22:32:00,
2013-05-15 19:02:00,69.5,47.0,29.81,SW,235,14.0,-999.0,45,-99.99,,,0.00,weatherlink.com 1.10,2013-05-15 23:02:00,
2013-05-15 19:17:00,69.1,46.0,29.81,SW,236,23.0,-999.0,44,-99.99,,,0.00,weatherlink.com 1.10,2013-05-15 23:17:00,
2013-05-15 19:47:00,67.7,47.0,29.82,WSW,238,24.0,-999.0,48,-99.99,,,0.00,weatherlink.com 1.10,2013-05-15 23:47:00,
2013-05-15 20:02:00,66.7,47.0,29.82,WSW,238,10.0,-999.0,50,-99.99,,,0.00,weatherlink.com 1.10,2013-05-16 00:02:00,
2013-05-15 20:17:00,65.8,46.0,29.82,WSW,257,15.0,-999.0,50,-99.99,,,0.00,weatherlink.com 1.10,2013-05-16 00:17:00,
2013-05-15 20:32:00,65.2,45.0,29.82,West,271,22.0,-999.0,48,-99.99,,,0.00,weatherlink.com 1.10,2013-05-16 00:32:00,
2013-05-15 20:47:00,64.7,45.0,29.82,West,259,14.0,-999.0,50,-99.99,,,0.00,weatherlink.com 1.10,2013-05-16 00:47:00,
2013-05-15 21:02:00,64.1,46.0,29.83,SW,232,10.0,-999.0,52,-99.99,,,0.00,weatherlink.com 1.10,2013-05-16 01:02:00,
2013-05-15 21:17:00,63.6,47.0,29.83,SW,226,20.0,-999.0,55,-99.99,,,0.00,weatherlink.com 1.10,2013-05-16 01:17:00,
2013-05-15 21:47:00,63.1,48.0,29.84,West,259,18.0,-999.0,59,-99.99,,,0.00,weatherlink.com 1.10,2013-05-16 01:47:00,
2013-05-15 22:02:00,62.6,49.0,29.84,SW,232,14.0,-999.0,62,-99.99,,,0.00,weatherlink.com 1.10,2013-05-16 02:02:00,
2013-05-15 22:17:00,62.1,49.0,29.85,WSW,242,14.0,-999.0,63,-99.99,,,0.00,weatherlink.com 1.10,2013-05-16 02:17:00,
2013-05-15 23:02:00,61.9,49.0,29.83,SW,217,16.0,-999.0,63,-99.99,,,0.00,weatherlink.com 1.10,2013-05-16 03:02:00,
2013-05-15 23:17:00,61.7,49.0,29.82,West,263,18.0,-999.0,63,-99.99,,,0.00,weatherlink.com 1.10,2013-05-16 03:17:00,
2013-05-15 23:47:00,61.4,48.0,29.82,WSW,246,18.0,-999.0,62,-99.99,,,0.00,weatherlink.com 1.10,2013-05-16 03:47:00,